Terminal Aerodrome Forecast
Issued by NWS Melbourne, FL

Home | Current Version | Previous Version | Text Only | Print | Product List | Glossary On
Versions: 1 2 3 4 5 6 7 8 9 10 11 12 13 14 15
000
FTUS42 KMLB 301402 AAB
TAFMLB
TAF AMD
KMLB 301402Z 3014/3112 08006KT P6SM VCSH SCT015 BKN045 BKN080
      TEMPO 3014/3015 -SHRA BKN015 BKN025
     FM301500 08007KT P6SM VCSH SCT035
     FM301800 08011KT P6SM SCT035
     FM310100 10008KT P6SM SCT030
     FM310600 10004KT P6SM VCSH SCT025=

USA.gov is the U.S. government's official web portal to all federal, state and local government web resources and services.